sensor_id;sensor_type;location;lat;lon;timestamp;pressure;altitude;pressure_sealevel;temperature;humidity
64827;BME280;51265;53.972;12.286;2023-11-18T00:01:32;101601.78;;;2.66;100.00
64827;BME280;51265;53.972;12.286;2023-11-18T00:04:00;101596.13;;;2.67;100.00
64827;BME280;51265;53.972;12.286;2023-11-18T00:06:26;101594.41;;;2.73;100.00
64827;BME280;51265;53.972;12.286;2023-11-18T00:08:52;101599.41;;;2.76;100.00
64827;BME280;51265;53.972;12.286;2023-11-18T00:11:18;101598.50;;;2.82;100.00
64827;BME280;51265;53.972;12.286;2023-11-18T00:13:45;101597.28;;;2.78;100.00
64827;BME280;51265;53.972;12.286;2023-11-18T00:16:11;101600.63;;;2.80;100.00
64827;BME280;51265;53.972;12.286;2023-11-18T00:18:42;101605.00;;;2.81;100.00
64827;BME280;51265;53.972;12.286;2023-11-18T00:21:08;101604.38;;;2.79;100.00
64827;BME280;51265;53.972;12.286;2023-11-18T00:23:34;101598.19;;;2.72;100.00
64827;BME280;51265;53.972;12.286;2023-11-18T00:26:01;101598.00;;;2.67;100.00
64827;BME280;51265;53.972;12.286;2023-11-18T00:28:28;101603.28;;;2.62;100.00
64827;BME280;51265;53.972;12.286;2023-11-18T00:30:54;101590.78;;;2.54;100.00
64827;BME280;51265;53.972;12.286;2023-11-18T00:33:21;101601.78;;;2.41;100.00
64827;BME280;51265;53.972;12.286;2023-11-18T00:35:47;101602.69;;;2.35;100.00
64827;BME280;51265;53.972;12.286;2023-11-18T00:38:13;101606.50;;;2.27;100.00
64827;BME280;51265;53.972;12.286;2023-11-18T00:40:40;101607.59;;;2.19;100.00
64827;BME280;51265;53.972;12.286;2023-11-18T00:43:06;101612.03;;;2.14;100.00
64827;BME280;51265;53.972;12.286;2023-11-18T00:45:33;101616.22;;;2.10;100.00
64827;BME280;51265;53.972;12.286;2023-11-18T00:47:59;101625.16;;;2.17;100.00
64827;BME280;51265;53.972;12.286;2023-11-18T00:50:25;101631.22;;;2.19;100.00
64827;BME280;51265;53.972;12.286;2023-11-18T00:52:51;101637.00;;;2.29;100.00
64827;BME280;51265;53.972;12.286;2023-11-18T00:55:17;101648.25;;;2.39;100.00
64827;BME280;51265;53.972;12.286;2023-11-18T00:57:45;101648.41;;;2.44;100.00
64827;BME280;51265;53.972;12.286;2023-11-18T01:00:12;101652.94;;;2.50;100.00
64827;BME280;51265;53.972;12.286;2023-11-18T01:02:42;101654.41;;;2.53;100.00
64827;BME280;51265;53.972;12.286;2023-11-18T01:05:10;101657.28;;;2.58;100.00
64827;BME280;51265;53.972;12.286;2023-11-18T01:07:38;101664.78;;;2.63;100.00
64827;BME280;51265;53.972;12.286;2023-11-18T01:10:05;101665.56;;;2.70;100.00
64827;BME280;51265;53.972;12.286;2023-11-18T01:12:32;101673.22;;;2.80;100.00
64827;BME280;51265;53.972;12.286;2023-11-18T01:14:59;101677.56;;;2.87;100.00
64827;BME280;51265;53.972;12.286;2023-11-18T01:17:26;101678.34;;;2.94;100.00
64827;BME280;51265;53.972;12.286;2023-11-18T01:19:52;101677.69;;;2.99;100.00
64827;BME280;51265;53.972;12.286;2023-11-18T01:22:19;101683.69;;;3.08;100.00
64827;BME280;51265;53.972;12.286;2023-11-18T01:24:45;101696.13;;;3.22;100.00
64827;BME280;51265;53.972;12.286;2023-11-18T01:27:11;101693.72;;;3.32;100.00
64827;BME280;51265;53.972;12.286;2023-11-18T01:29:39;101686.75;;;3.36;100.00
64827;BME280;51265;53.972;12.286;2023-11-18T01:32:06;101693.44;;;3.40;100.00
64827;BME280;51265;53.972;12.286;2023-11-18T01:34:36;101690.84;;;3.45;100.00
64827;BME280;51265;53.972;12.286;2023-11-18T01:37:09;101686.63;;;3.49;100.00
64827;BME280;51265;53.972;12.286;2023-11-18T01:39:36;101691.63;;;3.53;100.00
64827;BME280;51265;53.972;12.286;2023-11-18T01:42:03;101692.84;;;3.57;100.00
64827;BME280;51265;53.972;12.286;2023-11-18T01:44:29;101693.91;;;3.56;100.00
64827;BME280;51265;53.972;12.286;2023-11-18T01:46:57;101695.78;;;3.55;100.00
64827;BME280;51265;53.972;12.286;2023-11-18T01:49:26;101690.78;;;3.52;100.00
64827;BME280;51265;53.972;12.286;2023-11-18T01:51:53;101693.72;;;3.50;100.00
64827;BME280;51265;53.972;12.286;2023-11-18T01:54:21;101693.28;;;3.54;100.00
64827;BME280;51265;53.972;12.286;2023-11-18T01:56:48;101685.75;;;3.56;100.00
64827;BME280;51265;53.972;12.286;2023-11-18T01:59:16;101691.53;;;3.59;100.00
64827;BME280;51265;53.972;12.286;2023-11-18T02:01:52;101683.38;;;3.59;100.00
64827;BME280;51265;53.972;12.286;2023-11-18T02:04:20;101694.25;;;3.59;100.00
64827;BME280;51265;53.972;12.286;2023-11-18T02:06:50;101687.16;;;3.58;100.00
64827;BME280;51265;53.972;12.286;2023-11-18T02:09:19;101684.66;;;3.57;100.00
64827;BME280;51265;53.972;12.286;2023-11-18T02:12:11;101686.63;;;3.49;100.00
64827;BME280;51265;53.972;12.286;2023-11-18T02:14:43;101683.81;;;3.38;100.00
64827;BME280;51265;53.972;12.286;2023-11-18T02:17:14;101685.16;;;3.29;100.00
64827;BME280;51265;53.972;12.286;2023-11-18T02:19:41;101686.91;;;3.23;100.00
64827;BME280;51265;53.972;12.286;2023-11-18T02:22:09;101685.25;;;3.22;100.00
64827;BME280;51265;53.972;12.286;2023-11-18T02:24:37;101690.22;;;3.25;100.00
64827;BME280;51265;53.972;12.286;2023-11-18T02:27:04;101691.66;;;3.28;100.00
64827;BME280;51265;53.972;12.286;2023-11-18T02:29:39;101681.75;;;3.33;100.00
64827;BME280;51265;53.972;12.286;2023-11-18T02:32:13;101678.59;;;3.36;100.00
64827;BME280;51265;53.972;12.286;2023-11-18T02:34:48;101677.53;;;3.37;100.00
64827;BME280;51265;53.972;12.286;2023-11-18T02:37:16;101675.44;;;3.39;100.00
64827;BME280;51265;53.972;12.286;2023-11-18T02:42:51;101682.53;;;3.40;100.00
64827;BME280;51265;53.972;12.286;2023-11-18T02:45:20;101676.16;;;3.28;100.00
64827;BME280;51265;53.972;12.286;2023-11-18T02:47:47;101679.19;;;3.20;100.00
64827;BME280;51265;53.972;12.286;2023-11-18T02:50:14;101681.13;;;3.13;100.00
64827;BME280;51265;53.972;12.286;2023-11-18T02:52:41;101671.13;;;3.07;100.00
64827;BME280;51265;53.972;12.286;2023-11-18T02:55:08;101667.44;;;3.01;100.00
64827;BME280;51265;53.972;12.286;2023-11-18T02:57:35;101666.38;;;3.02;100.00
64827;BME280;51265;53.972;12.286;2023-11-18T03:00:02;101663.84;;;3.00;100.00
64827;BME280;51265;53.972;12.286;2023-11-18T03:02:30;101669.91;;;3.03;100.00
64827;BME280;51265;53.972;12.286;2023-11-18T03:04:57;101671.56;;;3.04;100.00
64827;BME280;51265;53.972;12.286;2023-11-18T03:07:24;101669.91;;;3.03;100.00
64827;BME280;51265;53.972;12.286;2023-11-18T03:09:50;101673.31;;;2.98;100.00
64827;BME280;51265;53.972;12.286;2023-11-18T03:12:16;101668.69;;;2.98;100.00
64827;BME280;51265;53.972;12.286;2023-11-18T03:14:42;101668.25;;;3.02;100.00
64827;BME280;51265;53.972;12.286;2023-11-18T03:17:09;101671.13;;;3.07;100.00
64827;BME280;51265;53.972;12.286;2023-11-18T03:19:36;101662.00;;;3.01;100.00
64827;BME280;51265;53.972;12.286;2023-11-18T03:22:02;101659.91;;;2.96;100.00
64827;BME280;51265;53.972;12.286;2023-11-18T03:24:29;101657.66;;;2.93;100.00
64827;BME280;51265;53.972;12.286;2023-11-18T03:26:55;101654.94;;;2.93;100.00
64827;BME280;51265;53.972;12.286;2023-11-18T03:29:22;101664.09;;;2.99;100.00
64827;BME280;51265;53.972;12.286;2023-11-18T03:31:49;101658.25;;;2.95;100.00
64827;BME280;51265;53.972;12.286;2023-11-18T03:34:16;101665.34;;;2.96;100.00
64827;BME280;51265;53.972;12.286;2023-11-18T03:36:44;101661.63;;;2.91;100.00
64827;BME280;51265;53.972;12.286;2023-11-18T03:39:11;101655.47;;;2.77;100.00
64827;BME280;51265;53.972;12.286;2023-11-18T03:41:37;101643.03;;;2.63;100.00
64827;BME280;51265;53.972;12.286;2023-11-18T03:44:04;101652.34;;;2.48;100.00
64827;BME280;51265;53.972;12.286;2023-11-18T03:46:30;101650.31;;;2.37;100.00
64827;BME280;51265;53.972;12.286;2023-11-18T03:49:00;101655.75;;;2.37;100.00
64827;BME280;51265;53.972;12.286;2023-11-18T03:51:27;101654.91;;;2.43;100.00
64827;BME280;51265;53.972;12.286;2023-11-18T03:53:54;101664.47;;;2.53;100.00
64827;BME280;51265;53.972;12.286;2023-11-18T03:56:20;101665.69;;;2.57;100.00
64827;BME280;51265;53.972;12.286;2023-11-18T03:58:47;101668.13;;;2.65;100.00
64827;BME280;51265;53.972;12.286;2023-11-18T04:01:24;101670.22;;;2.63;100.00
64827;BME280;51265;53.972;12.286;2023-11-18T04:03:53;101672.34;;;2.61;100.00
64827;BME280;51265;53.972;12.286;2023-11-18T04:06:20;101671.56;;;2.54;100.00
64827;BME280;51265;53.972;12.286;2023-11-18T04:08:48;101667.88;;;2.41;100.00
64827;BME280;51265;53.972;12.286;2023-11-18T04:11:16;101667.97;;;2.28;100.00
64827;BME280;51265;53.972;12.286;2023-11-18T04:13:43;101672.00;;;2.19;100.00
64827;BME280;51265;53.972;12.286;2023-11-18T04:16:16;101669.94;;;2.14;100.00
64827;BME280;51265;53.972;12.286;2023-11-18T04:18:43;101672.84;;;2.13;100.00
64827;BME280;51265;53.972;12.286;2023-11-18T04:21:10;101678.50;;;2.11;100.00
64827;BME280;51265;53.972;12.286;2023-11-18T04:23:43;101680.22;;;2.06;100.00
64827;BME280;51265;53.972;12.286;2023-11-18T04:26:10;101680.22;;;1.99;100.00
64827;BME280;51265;53.972;12.286;2023-11-18T04:28:36;101676.94;;;1.90;100.00
64827;BME280;51265;53.972;12.286;2023-11-18T04:31:02;101674.88;;;1.79;100.00
64827;BME280;51265;53.972;12.286;2023-11-18T04:33:29;101673.69;;;1.68;100.00
64827;BME280;51265;53.972;12.286;2023-11-18T04:35:55;101679.53;;;1.59;100.00
64827;BME280;51265;53.972;12.286;2023-11-18T04:38:25;101673.09;;;1.60;100.00
64827;BME280;51265;53.972;12.286;2023-11-18T04:40:52;101677.25;;;1.62;100.00
64827;BME280;51265;53.972;12.286;2023-11-18T04:43:20;101686.38;;;1.74;100.00
64827;BME280;51265;53.972;12.286;2023-11-18T04:45:46;101687.19;;;1.88;100.00
64827;BME280;51265;53.972;12.286;2023-11-18T04:48:12;101687.53;;;2.05;100.00
64827;BME280;51265;53.972;12.286;2023-11-18T04:50:42;101683.47;;;2.21;100.00
64827;BME280;51265;53.972;12.286;2023-11-18T04:53:08;101683.22;;;2.29;100.00
64827;BME280;51265;53.972;12.286;2023-11-18T04:55:39;101683.59;;;2.33;100.00
64827;BME280;51265;53.972;12.286;2023-11-18T04:58:06;101674.19;;;2.35;100.00
64827;BME280;51265;53.972;12.286;2023-11-18T05:00:41;101680.41;;;2.42;100.00
64827;BME280;51265;53.972;12.286;2023-11-18T05:03:08;101685.41;;;2.45;100.00
64827;BME280;51265;53.972;12.286;2023-11-18T05:05:39;101675.34;;;2.53;100.00
64827;BME280;51265;53.972;12.286;2023-11-18T05:08:06;101681.56;;;2.60;100.00
64827;BME280;51265;53.972;12.286;2023-11-18T05:10:33;101690.97;;;2.64;100.00
64827;BME280;51265;53.972;12.286;2023-11-18T05:12:59;101690.06;;;2.70;100.00
64827;BME280;51265;53.972;12.286;2023-11-18T05:15:26;101689.34;;;2.81;100.00
64827;BME280;51265;53.972;12.286;2023-11-18T05:17:52;101692.69;;;2.83;100.00
64827;BME280;51265;53.972;12.286;2023-11-18T05:20:20;101700.25;;;2.81;100.00
64827;BME280;51265;53.972;12.286;2023-11-18T05:22:47;101696.28;;;2.77;100.00
64827;BME280;51265;53.972;12.286;2023-11-18T05:25:13;101689.19;;;2.76;100.00
64827;BME280;51265;53.972;12.286;2023-11-18T05:27:40;101694.00;;;2.74;100.00
64827;BME280;51265;53.972;12.286;2023-11-18T05:30:07;101696.91;;;2.79;100.00
64827;BME280;51265;53.972;12.286;2023-11-18T05:32:34;101696.03;;;2.85;100.00
64827;BME280;51265;53.972;12.286;2023-11-18T05:35:00;101688.06;;;2.84;100.00
64827;BME280;51265;53.972;12.286;2023-11-18T05:37:26;101693.13;;;2.80;100.00
64827;BME280;51265;53.972;12.286;2023-11-18T05:39:55;101687.69;;;2.80;100.00
64827;BME280;51265;53.972;12.286;2023-11-18T05:42:36;101687.22;;;2.83;100.00
64827;BME280;51265;53.972;12.286;2023-11-18T05:45:03;101678.19;;;2.89;100.00
64827;BME280;51265;53.972;12.286;2023-11-18T05:47:30;101679.22;;;2.88;100.00
64827;BME280;51265;53.972;12.286;2023-11-18T05:49:56;101680.91;;;2.89;100.00
64827;BME280;51265;53.972;12.286;2023-11-18T05:52:23;101683.19;;;2.92;100.00
64827;BME280;51265;53.972;12.286;2023-11-18T05:54:49;101687.19;;;2.90;100.00
64827;BME280;51265;53.972;12.286;2023-11-18T05:57:15;101684.47;;;2.90;100.00
64827;BME280;51265;53.972;12.286;2023-11-18T05:59:43;101693.34;;;3.04;100.00
64827;BME280;51265;53.972;12.286;2023-11-18T06:02:09;101686.09;;;2.97;100.00
64827;BME280;51265;53.972;12.286;2023-11-18T06:04:39;101695.13;;;2.91;100.00
64827;BME280;51265;53.972;12.286;2023-11-18T06:07:05;101698.22;;;2.70;100.00
64827;BME280;51265;53.972;12.286;2023-11-18T06:09:32;101697.06;;;2.59;100.00
64827;BME280;51265;53.972;12.286;2023-11-18T06:11:58;101697.50;;;2.56;100.00
64827;BME280;51265;53.972;12.286;2023-11-18T06:14:24;101707.88;;;2.66;100.00
64827;BME280;51265;53.972;12.286;2023-11-18T06:16:51;101709.06;;;2.77;100.00
64827;BME280;51265;53.972;12.286;2023-11-18T06:19:18;101694.00;;;2.74;100.00
64827;BME280;51265;53.972;12.286;2023-11-18T06:21:44;101702.16;;;2.74;100.00
64827;BME280;51265;53.972;12.286;2023-11-18T06:24:10;101697.44;;;2.63;100.00
64827;BME280;51265;53.972;12.286;2023-11-18T06:26:37;101703.59;;;2.52;100.00
64827;BME280;51265;53.972;12.286;2023-11-18T06:29:03;101704.03;;;2.48;100.00
64827;BME280;51265;53.972;12.286;2023-11-18T06:31:30;101709.63;;;2.54;100.00
64827;BME280;51265;53.972;12.286;2023-11-18T06:33:56;101712.97;;;2.56;100.00
64827;BME280;51265;53.972;12.286;2023-11-18T06:36:23;101714.22;;;2.60;100.00
64827;BME280;51265;53.972;12.286;2023-11-18T06:38:53;101715.69;;;2.56;100.00
64827;BME280;51265;53.972;12.286;2023-11-18T06:41:21;101718.22;;;2.50;100.00
64827;BME280;51265;53.972;12.286;2023-11-18T06:44:00;101723.66;;;2.50;100.00
64827;BME280;51265;53.972;12.286;2023-11-18T06:46:35;101724.28;;;2.53;100.00
64827;BME280;51265;53.972;12.286;2023-11-18T06:49:03;101722.78;;;2.57;100.00
64827;BME280;51265;53.972;12.286;2023-11-18T06:51:31;101735.50;;;2.63;100.00
64827;BME280;51265;53.972;12.286;2023-11-18T06:54:01;101737.97;;;2.71;100.00
64827;BME280;51265;53.972;12.286;2023-11-18T06:56:35;101731.03;;;2.75;100.00
64827;BME280;51265;53.972;12.286;2023-11-18T06:59:05;101740.66;;;2.78;100.00
64827;BME280;51265;53.972;12.286;2023-11-18T07:01:36;101739.41;;;2.80;100.00
64827;BME280;51265;53.972;12.286;2023-11-18T07:04:02;101740.00;;;2.82;100.00
64827;BME280;51265;53.972;12.286;2023-11-18T07:06:28;101749.22;;;2.81;100.00
64827;BME280;51265;53.972;12.286;2023-11-18T07:08:55;101744.19;;;2.78;100.00
64827;BME280;51265;53.972;12.286;2023-11-18T07:11:26;101753.31;;;2.90;100.00
64827;BME280;51265;53.972;12.286;2023-11-18T07:13:52;101752.63;;;3.02;100.00
64827;BME280;51265;53.972;12.286;2023-11-18T07:16:24;101753.06;;;2.98;100.00
64827;BME280;51265;53.972;12.286;2023-11-18T07:18:50;101752.94;;;2.87;100.00
64827;BME280;51265;53.972;12.286;2023-11-18T07:21:17;101757.16;;;2.83;100.00
64827;BME280;51265;53.972;12.286;2023-11-18T07:23:44;101767.63;;;2.79;100.00
64827;BME280;51265;53.972;12.286;2023-11-18T07:26:10;101768.44;;;2.86;100.00
64827;BME280;51265;53.972;12.286;2023-11-18T07:28:36;101774.66;;;2.93;100.00
64827;BME280;51265;53.972;12.286;2023-11-18T07:31:03;101777.13;;;3.02;100.00
64827;BME280;51265;53.972;12.286;2023-11-18T07:33:31;101779.84;;;3.02;100.00
64827;BME280;51265;53.972;12.286;2023-11-18T07:35:58;101795.28;;;3.08;100.00
64827;BME280;51265;53.972;12.286;2023-11-18T07:38:24;101790.47;;;3.10;100.00
64827;BME280;51265;53.972;12.286;2023-11-18T07:40:52;101790.47;;;3.10;100.00
64827;BME280;51265;53.972;12.286;2023-11-18T07:43:23;101805.09;;;3.09;100.00
64827;BME280;51265;53.972;12.286;2023-11-18T07:45:49;101802.59;;;3.14;100.00
64827;BME280;51265;53.972;12.286;2023-11-18T07:48:18;101803.34;;;3.21;100.00
64827;BME280;51265;53.972;12.286;2023-11-18T07:50:47;101814.59;;;3.31;100.00
64827;BME280;51265;53.972;12.286;2023-11-18T07:53:13;101812.81;;;3.43;100.00
64827;BME280;51265;53.972;12.286;2023-11-18T07:55:39;101819.22;;;3.56;100.00
64827;BME280;51265;53.972;12.286;2023-11-18T07:58:07;101811.50;;;3.71;100.00
64827;BME280;51265;53.972;12.286;2023-11-18T08:00:42;101811.84;;;3.81;100.00
64827;BME280;51265;53.972;12.286;2023-11-18T08:03:11;101816.19;;;3.89;100.00
64827;BME280;51265;53.972;12.286;2023-11-18T08:05:38;101816.91;;;3.96;100.00
64827;BME280;51265;53.972;12.286;2023-11-18T08:08:13;101823.09;;;4.10;100.00
64827;BME280;51265;53.972;12.286;2023-11-18T08:10:40;101809.88;;;4.25;100.00
64827;BME280;51265;53.972;12.286;2023-11-18T08:13:08;101804.19;;;4.45;100.00
64827;BME280;51265;53.972;12.286;2023-11-18T08:15:37;101805.84;;;4.46;100.00
64827;BME280;51265;53.972;12.286;2023-11-18T08:18:03;101802.22;;;4.52;100.00
64827;BME280;51265;53.972;12.286;2023-11-18T08:20:30;101800.47;;;4.58;100.00
64827;BME280;51265;53.972;12.286;2023-11-18T08:22:56;101799.88;;;4.56;100.00
64827;BME280;51265;53.972;12.286;2023-11-18T08:25:22;101803.19;;;4.58;100.00
64827;BME280;51265;53.972;12.286;2023-11-18T08:27:48;101802.75;;;4.61;100.00
64827;BME280;51265;53.972;12.286;2023-11-18T08:30:15;101808.91;;;4.68;100.00
64827;BME280;51265;53.972;12.286;2023-11-18T08:32:44;101807.06;;;4.80;100.00
64827;BME280;51265;53.972;12.286;2023-11-18T08:35:12;101806.03;;;4.81;100.00
64827;BME280;51265;53.972;12.286;2023-11-18T08:37:42;101810.41;;;4.82;100.00
64827;BME280;51265;53.972;12.286;2023-11-18T08:40:09;101805.41;;;4.79;100.00
64827;BME280;51265;53.972;12.286;2023-11-18T08:42:44;101805.16;;;4.69;100.00
64827;BME280;51265;53.972;12.286;2023-11-18T08:45:35;101798.19;;;4.55;100.00
64827;BME280;51265;53.972;12.286;2023-11-18T08:48:04;101792.59;;;4.49;100.00
64827;BME280;51265;53.972;12.286;2023-11-18T08:50:35;101783.66;;;4.42;100.00
64827;BME280;51265;53.972;12.286;2023-11-18T08:53:01;101787.44;;;4.41;100.00
64827;BME280;51265;53.972;12.286;2023-11-18T08:55:31;101780.34;;;4.40;100.00
64827;BME280;51265;53.972;12.286;2023-11-18T08:58:08;101783.06;;;4.40;100.00
64827;BME280;51265;53.972;12.286;2023-11-18T09:00:56;101783.44;;;4.44;100.00
64827;BME280;51265;53.972;12.286;2023-11-18T09:03:30;101783.81;;;4.47;100.00
64827;BME280;51265;53.972;12.286;2023-11-18T09:06:10;101790.69;;;4.50;100.00
64827;BME280;51265;53.972;12.286;2023-11-18T09:08:51;101790.63;;;4.57;100.00
64827;BME280;51265;53.972;12.286;2023-11-18T09:11:24;101797.28;;;4.61;100.00
64827;BME280;51265;53.972;12.286;2023-11-18T09:13:53;101794.69;;;4.66;100.00
64827;BME280;51265;53.972;12.286;2023-11-18T09:16:26;101790.34;;;4.77;100.00
64827;BME280;51265;53.972;12.286;2023-11-18T09:18:55;101793.59;;;4.85;100.00
64827;BME280;51265;53.972;12.286;2023-11-18T09:21:24;101789.41;;;4.83;100.00
64827;BME280;51265;53.972;12.286;2023-11-18T09:23:54;101781.13;;;4.89;100.00
64827;BME280;51265;53.972;12.286;2023-11-18T09:26:22;101778.41;;;4.89;100.00
64827;BME280;51265;53.972;12.286;2023-11-18T09:28:48;101788.28;;;5.02;100.00
64827;BME280;51265;53.972;12.286;2023-11-18T09:31:16;101789.72;;;5.05;100.00
64827;BME280;51265;53.972;12.286;2023-11-18T09:33:43;101787.19;;;4.91;100.00
64827;BME280;51265;53.972;12.286;2023-11-18T09:36:19;101785.22;;;4.80;100.00
64827;BME280;51265;53.972;12.286;2023-11-18T09:38:45;101781.91;;;4.78;100.00
64827;BME280;51265;53.972;12.286;2023-11-18T09:41:15;101780.25;;;4.77;100.00
64827;BME280;51265;53.972;12.286;2023-11-18T09:43:43;101776.47;;;4.78;100.00
64827;BME280;51265;53.972;12.286;2023-11-18T09:46:13;101773.13;;;4.76;100.00
64827;BME280;51265;53.972;12.286;2023-11-18T09:48:48;101762.34;;;4.81;100.00
64827;BME280;51265;53.972;12.286;2023-11-18T09:51:35;101775.19;;;4.92;100.00
64827;BME280;51265;53.972;12.286;2023-11-18T09:54:05;101773.44;;;4.98;100.00
64827;BME280;51265;53.972;12.286;2023-11-18T10:02:53;101768.38;;;5.25;100.00
64827;BME280;51265;53.972;12.286;2023-11-18T10:05:22;101747.25;;;5.32;100.00
64827;BME280;51265;53.972;12.286;2023-11-18T10:07:49;101752.38;;;5.40;100.00
64827;BME280;51265;53.972;12.286;2023-11-18T10:10:17;101741.44;;;5.40;100.00
64827;BME280;51265;53.972;12.286;2023-11-18T10:12:48;101740.72;;;5.57;100.00
64827;BME280;51265;53.972;12.286;2023-11-18T10:15:24;101737.97;;;5.68;100.00
64827;BME280;51265;53.972;12.286;2023-11-18T10:17:51;101730.25;;;5.77;100.00
64827;BME280;51265;53.972;12.286;2023-11-18T10:23:06;101744.50;;;6.03;100.00
64827;BME280;51265;53.972;12.286;2023-11-18T10:25:45;101731.50;;;6.10;100.00
64827;BME280;51265;53.972;12.286;2023-11-18T10:28:33;101722.72;;;6.08;100.00
64827;BME280;51265;53.972;12.286;2023-11-18T10:31:04;101726.16;;;6.15;100.00
64827;BME280;51265;53.972;12.286;2023-11-18T10:33:32;101723.66;;;6.13;100.00
64827;BME280;51265;53.972;12.286;2023-11-18T10:35:59;101711.94;;;6.30;100.00
64827;BME280;51265;53.972;12.286;2023-11-18T10:38:38;101717.94;;;6.43;100.00
64827;BME280;51265;53.972;12.286;2023-11-18T10:41:09;101702.44;;;6.32;100.00
64827;BME280;51265;53.972;12.286;2023-11-18T10:43:35;101707.41;;;6.07;100.00
64827;BME280;51265;53.972;12.286;2023-11-18T10:48:30;101692.13;;;5.59;100.00
64827;BME280;51265;53.972;12.286;2023-11-18T10:50:57;101685.47;;;5.43;100.00
64827;BME280;51265;53.972;12.286;2023-11-18T10:53:25;101680.72;;;5.27;100.00
64827;BME280;51265;53.972;12.286;2023-11-18T10:55:53;101675.03;;;5.28;100.00
64827;BME280;51265;53.972;12.286;2023-11-18T10:58:20;101678.25;;;5.48;100.00
64827;BME280;51265;53.972;12.286;2023-11-18T11:00:50;101677.81;;;5.80;100.00
64827;BME280;51265;53.972;12.286;2023-11-18T11:03:22;101665.44;;;6.01;100.00
64827;BME280;51265;53.972;12.286;2023-11-18T11:05:51;101641.69;;;6.18;100.00
64827;BME280;51265;53.972;12.286;2023-11-18T11:08:20;101630.38;;;6.43;100.00
64827;BME280;51265;53.972;12.286;2023-11-18T11:10:46;101640.38;;;7.00;100.00
64827;BME280;51265;53.972;12.286;2023-11-18T11:13:16;101638.31;;;7.46;100.00
64827;BME280;51265;53.972;12.286;2023-11-18T11:15:44;101637.88;;;7.76;100.00
64827;BME280;51265;53.972;12.286;2023-11-18T11:18:20;101624.66;;;7.95;100.00
64827;BME280;51265;53.972;12.286;2023-11-18T11:24:01;101585.94;;;8.40;100.00
64827;BME280;51265;53.972;12.286;2023-11-18T11:26:58;101558.25;;;8.20;100.00
64827;BME280;51265;53.972;12.286;2023-11-18T11:29:34;101533.38;;;7.99;100.00
64827;BME280;51265;53.972;12.286;2023-11-18T11:32:28;101526.75;;;7.95;100.00
64827;BME280;51265;53.972;12.286;2023-11-18T11:35:01;101503.84;;;7.85;100.00
64827;BME280;51265;53.972;12.286;2023-11-18T11:37:34;101491.66;;;7.70;100.00
64827;BME280;51265;53.972;12.286;2023-11-18T11:40:03;101465.56;;;7.68;100.00
64827;BME280;51265;53.972;12.286;2023-11-18T11:42:35;101457.94;;;7.70;100.00
64827;BME280;51265;53.972;12.286;2023-11-18T11:45:02;101445.28;;;7.42;100.00
64827;BME280;51265;53.972;12.286;2023-11-18T11:47:29;101450.75;;;7.15;100.00
64827;BME280;51265;53.972;12.286;2023-11-18T11:50:17;101443.81;;;7.07;100.00
64827;BME280;51265;53.972;12.286;2023-11-18T11:52:53;101437.88;;;6.93;100.00
64827;BME280;51265;53.972;12.286;2023-11-18T11:55:33;101441.81;;;6.81;100.00
64827;BME280;51265;53.972;12.286;2023-11-18T11:58:03;101433.47;;;6.70;100.00
64827;BME280;51265;53.972;12.286;2023-11-18T12:00:32;101443.59;;;6.70;100.00
64827;BME280;51265;53.972;12.286;2023-11-18T12:03:01;101434.34;;;6.54;100.00
64827;BME280;51265;53.972;12.286;2023-11-18T12:05:30;101440.50;;;6.44;100.00
64827;BME280;51265;53.972;12.286;2023-11-18T12:07:59;101442.16;;;6.45;100.00
64827;BME280;51265;53.972;12.286;2023-11-18T12:10:31;101452.69;;;6.54;100.00
64827;BME280;51265;53.972;12.286;2023-11-18T12:13:07;101455.22;;;6.60;100.00
64827;BME280;51265;53.972;12.286;2023-11-18T12:15:50;101460.66;;;6.77;100.00
64827;BME280;51265;53.972;12.286;2023-11-18T12:18:23;101473.19;;;7.12;100.00
64827;BME280;51265;53.972;12.286;2023-11-18T12:20:50;101445.28;;;7.15;100.00
64827;BME280;51265;53.972;12.286;2023-11-18T12:23:21;101437.66;;;7.22;100.00
64827;BME280;51265;53.972;12.286;2023-11-18T12:25:51;101426.75;;;7.27;100.00
64827;BME280;51265;53.972;12.286;2023-11-18T12:28:28;101420.84;;;7.13;100.00
64827;BME280;51265;53.972;12.286;2023-11-18T12:30:57;101414.13;;;6.99;100.00
64827;BME280;51265;53.972;12.286;2023-11-18T12:33:24;101410.38;;;6.83;100.00
64827;BME280;51265;53.972;12.286;2023-11-18T12:38:26;101390.72;;;6.47;100.00
64827;BME280;51265;53.972;12.286;2023-11-18T12:41:01;101393.91;;;6.39;100.00
64827;BME280;51265;53.972;12.286;2023-11-18T12:43:48;101394.41;;;6.36;100.00
64827;BME280;51265;53.972;12.286;2023-11-18T12:46:47;101377.84;;;6.26;100.00
64827;BME280;51265;53.972;12.286;2023-11-18T12:49:16;101371.78;;;6.02;100.00
64827;BME280;51265;53.972;12.286;2023-11-18T12:51:44;101376.06;;;5.98;100.00
64827;BME280;51265;53.972;12.286;2023-11-18T12:54:11;101377.78;;;5.87;100.00
64827;BME280;51265;53.972;12.286;2023-11-18T12:56:41;101362.28;;;5.76;100.00
64827;BME280;51265;53.972;12.286;2023-11-18T12:59:16;101375.53;;;5.67;100.00
64827;BME280;51265;53.972;12.286;2023-11-18T13:01:44;101376.13;;;5.53;100.00
64827;BME280;51265;53.972;12.286;2023-11-18T13:04:17;101378.16;;;5.45;100.00
64827;BME280;51265;53.972;12.286;2023-11-18T13:06:46;101384.28;;;5.36;100.00
64827;BME280;51265;53.972;12.286;2023-11-18T13:09:14;101390.06;;;5.22;100.00
64827;BME280;51265;53.972;12.286;2023-11-18T13:11:58;101403.75;;;5.11;100.00